createdAt,value
2018-07-09T00:02:59.034Z,14.30
2018-07-09T00:18:30.476Z,14.30
2018-07-09T00:21:21.710Z,14.20
2018-07-09T00:27:15.042Z,14.20
2018-07-09T01:17:57.636Z,13.70
2018-07-09T01:36:45.033Z,13.80
2018-07-09T02:01:28.325Z,13.80
2018-07-09T02:07:28.644Z,13.70
2018-07-09T02:10:28.170Z,13.70
2018-07-09T02:12:58.931Z,13.60
2018-07-09T02:25:17.888Z,13.50
2018-07-09T02:28:18.570Z,13.50
2018-07-09T02:30:49.876Z,13.40
2018-07-09T02:33:21.539Z,13.40
2018-07-09T02:35:52.060Z,13.40
2018-07-09T02:38:22.570Z,13.40
2018-07-09T02:40:53.352Z,13.50
2018-07-09T02:43:47.511Z,13.60
2018-07-09T02:46:19.484Z,13.80
2018-07-09T02:48:52.694Z,13.90
2018-07-09T02:51:23.345Z,14.00
2018-07-09T02:53:53.796Z,14.00
2018-07-09T03:06:06.998Z,14.10
2018-07-09T03:08:49.920Z,14.10
2018-07-09T03:11:34.253Z,13.90
2018-07-09T03:14:04.848Z,13.80
2018-07-09T03:16:35.277Z,13.70
2018-07-09T03:19:06.088Z,13.60
2018-07-09T03:21:36.226Z,13.50
2018-07-09T03:24:07.268Z,13.40
2018-07-09T03:26:37.577Z,13.40
2018-07-09T03:29:08.033Z,13.40
2018-07-09T03:31:50.016Z,13.40
2018-07-09T03:34:20.450Z,13.40
2018-07-09T03:36:51.151Z,13.30
2018-07-09T03:39:21.522Z,13.30
2018-07-09T03:41:51.716Z,13.30
2018-07-09T03:44:22.297Z,13.30
2018-07-09T03:57:00.786Z,13.30
2018-07-09T03:59:31.411Z,13.30
2018-07-09T04:30:33.297Z,13.70
2018-07-09T04:33:03.839Z,14.20
2018-07-09T04:35:34.284Z,14.40
2018-07-09T04:38:04.762Z,14.40
2018-07-09T04:40:35.294Z,14.40
2018-07-09T04:43:05.837Z,14.40
2018-07-09T04:45:36.915Z,14.40
2018-07-09T04:48:08.016Z,14.50
2018-07-09T04:50:38.516Z,14.50
2018-07-09T04:53:08.744Z,14.50
2018-07-09T04:55:38.890Z,14.60
2018-07-09T04:58:09.171Z,14.70
2018-07-09T05:00:39.429Z,14.80
2018-07-09T05:03:10.322Z,15.20
2018-07-09T05:05:41.128Z,15.40
2018-07-09T05:08:11.838Z,15.80
2018-07-09T05:10:42.548Z,16.00
2018-07-09T05:13:13.459Z,16.30
2018-07-09T05:15:43.953Z,16.70
2018-07-09T05:18:15.891Z,17.00
2018-07-09T05:20:47.198Z,17.30
2018-07-09T05:23:18.570Z,17.70
2018-07-09T05:25:49.624Z,18.10
2018-07-09T05:28:21.575Z,18.40
2018-07-09T05:30:52.620Z,18.70
2018-07-09T05:33:24.065Z,18.90
2018-07-09T05:35:55.450Z,19.20
2018-07-09T05:38:26.981Z,19.50
2018-07-09T05:40:58.256Z,19.60
2018-07-09T05:43:31.159Z,19.60
2018-07-09T05:46:02.117Z,19.50
2018-07-09T05:48:33.157Z,19.80
2018-07-09T05:51:04.702Z,20.00
2018-07-09T05:53:36.034Z,20.00
2018-07-09T05:56:07.656Z,20.00
2018-07-09T05:58:38.823Z,20.10
2018-07-09T06:01:10.287Z,20.00
2018-07-09T06:03:41.841Z,20.10
2018-07-09T06:06:13.056Z,20.50
2018-07-09T06:08:44.296Z,20.70
2018-07-09T06:11:17.517Z,21.00
2018-07-09T06:13:50.096Z,21.20
2018-07-09T06:16:21.596Z,21.50
2018-07-09T06:18:53.641Z,21.60
2018-07-09T06:21:25.903Z,21.60
2018-07-09T06:23:57.350Z,21.40
2018-07-09T06:26:29.433Z,21.30
2018-07-09T06:29:00.403Z,21.10
2018-07-09T06:31:31.861Z,21.20
2018-07-09T06:34:03.170Z,21.40
2018-07-09T06:36:34.597Z,21.50
2018-07-09T06:39:06.858Z,21.50
2018-07-09T06:41:38.177Z,21.40
2018-07-09T06:44:09.501Z,21.20
2018-07-09T06:46:40.975Z,21.10
2018-07-09T06:49:12.407Z,21.10
2018-07-09T06:51:43.766Z,20.80
2018-07-09T06:54:15.233Z,20.80
2018-07-09T06:56:47.254Z,20.80
2018-07-09T06:59:18.625Z,20.50
2018-07-09T07:01:49.545Z,20.50
2018-07-09T07:04:20.861Z,20.70
2018-07-09T07:06:52.153Z,20.80
2018-07-09T07:09:23.192Z,21.00
2018-07-09T07:11:54.779Z,21.10
2018-07-09T07:14:26.114Z,21.30
2018-07-09T07:19:37.155Z,21.20
2018-07-09T07:22:22.699Z,21.10
2018-07-09T07:24:54.303Z,21.10
2018-07-09T07:27:26.082Z,21.20
2018-07-09T07:29:58.868Z,21.40
2018-07-09T07:32:30.764Z,21.40
2018-07-09T07:35:02.129Z,21.40
2018-07-09T07:37:33.864Z,21.50
2018-07-09T07:40:04.934Z,21.50
2018-07-09T07:42:40.820Z,21.80
2018-07-09T07:45:11.872Z,21.90
2018-07-09T07:47:43.856Z,22.00
2018-07-09T07:50:17.144Z,22.20
2018-07-09T07:52:48.402Z,22.20
2018-07-09T07:55:21.563Z,22.30
2018-07-09T07:57:52.667Z,22.40
2018-07-09T08:00:26.458Z,22.20
2018-07-09T08:02:58.039Z,22.10
2018-07-09T08:05:31.018Z,22.00
2018-07-09T08:08:02.574Z,21.80
2018-07-09T08:10:34.052Z,21.80
2018-07-09T08:13:27.993Z,21.90
2018-07-09T08:15:44.616Z,22.00
2018-07-09T08:18:16.507Z,21.90
2018-07-09T08:20:48.246Z,22.00
2018-07-09T08:23:19.960Z,22.30
2018-07-09T08:25:52.428Z,22.50
2018-07-09T08:28:24.085Z,22.70
2018-07-09T08:30:56.621Z,22.70
2018-07-09T08:33:28.782Z,22.80
2018-07-09T08:36:00.140Z,22.90
2018-07-09T08:38:31.230Z,22.50
2018-07-09T08:41:02.788Z,22.50
2018-07-09T08:43:34.946Z,22.60
2018-07-09T08:46:06.680Z,22.60
2018-07-09T08:48:38.436Z,22.50
2018-07-09T08:51:10.106Z,22.50
2018-07-09T08:53:41.193Z,22.30
2018-07-09T08:56:12.595Z,22.30
2018-07-09T08:58:44.072Z,22.50
2018-07-09T09:01:15.128Z,22.70
2018-07-09T09:03:47.045Z,22.70
2018-07-09T09:06:18.639Z,22.80
2018-07-09T09:08:49.827Z,22.90
2018-07-09T09:11:21.464Z,23.00
2018-07-09T09:13:52.600Z,23.10
2018-07-09T09:16:25.794Z,23.00
2018-07-09T09:18:57.244Z,23.00
2018-07-09T09:21:28.969Z,23.00
2018-07-09T09:24:00.505Z,23.10
2018-07-09T09:26:32.184Z,23.10
2018-07-09T09:29:03.739Z,23.00
2018-07-09T09:31:34.799Z,22.90
2018-07-09T09:34:06.337Z,22.90
2018-07-09T09:36:37.902Z,23.00
2018-07-09T09:39:09.447Z,23.00
2018-07-09T09:41:41.941Z,23.10
2018-07-09T09:44:13.444Z,23.10
2018-07-09T09:46:45.342Z,23.10
2018-07-09T09:49:16.884Z,23.30
2018-07-09T09:51:47.943Z,23.30
2018-07-09T09:54:18.981Z,22.90
2018-07-09T09:56:50.493Z,22.80
2018-07-09T09:59:21.731Z,22.60
2018-07-09T10:01:52.815Z,22.60
2018-07-09T10:04:24.138Z,22.70
2018-07-09T10:06:55.240Z,22.80
2018-07-09T10:09:26.639Z,22.90
2018-07-09T10:11:58.200Z,23.20
2018-07-09T10:14:29.246Z,23.10
2018-07-09T10:17:00.621Z,23.10
2018-07-09T10:19:32.162Z,23.00
2018-07-09T10:22:03.161Z,23.00
2018-07-09T10:24:34.069Z,23.10
2018-07-09T10:27:05.188Z,23.20
2018-07-09T10:29:36.731Z,23.00
2018-07-09T10:32:08.379Z,23.30
2018-07-09T10:34:39.756Z,23.40
2018-07-09T10:37:10.924Z,23.50
2018-07-09T10:39:42.318Z,23.70
2018-07-09T10:42:13.486Z,23.80
2018-07-09T10:44:44.792Z,23.90
2018-07-09T10:47:29.107Z,24.20
2018-07-09T10:50:00.667Z,24.30
2018-07-09T10:52:31.764Z,24.40
2018-07-09T10:55:02.866Z,24.70
2018-07-09T10:57:34.248Z,24.50
2018-07-09T11:00:05.986Z,24.50
2018-07-09T11:02:37.451Z,24.50
2018-07-09T11:05:09.295Z,24.50
2018-07-09T11:07:40.386Z,24.70
2018-07-09T11:10:11.915Z,24.50
2018-07-09T11:12:42.843Z,24.40
2018-07-09T11:15:14.182Z,24.40
2018-07-09T11:17:45.428Z,24.40
2018-07-09T11:20:16.702Z,24.60
2018-07-09T11:22:47.773Z,24.80
2018-07-09T11:25:18.772Z,24.80
2018-07-09T11:27:49.714Z,24.70
2018-07-09T11:30:20.770Z,24.80
2018-07-09T11:32:51.718Z,24.90
2018-07-09T11:35:22.910Z,24.90
2018-07-09T11:37:53.914Z,25.00
2018-07-09T11:40:25.148Z,24.90
2018-07-09T11:42:56.507Z,24.90
2018-07-09T11:45:27.867Z,25.10
2018-07-09T11:47:59.306Z,25.00
2018-07-09T11:50:30.306Z,25.10
2018-07-09T11:53:01.389Z,25.30
2018-07-09T11:55:32.421Z,25.30
2018-07-09T11:58:03.725Z,25.40
2018-07-09T12:00:35.133Z,25.30
2018-07-09T12:03:06.635Z,25.30
2018-07-09T12:05:38.225Z,25.30
2018-07-09T12:08:09.252Z,25.30
2018-07-09T12:10:40.824Z,25.40
2018-07-09T12:13:12.001Z,25.50
2018-07-09T12:15:43.042Z,25.60
2018-07-09T12:20:45.160Z,25.70
2018-07-09T12:23:16.382Z,25.90
2018-07-09T12:25:47.843Z,26.00
2018-07-09T12:28:20.599Z,25.60
2018-07-09T12:30:51.729Z,25.30
2018-07-09T12:33:22.715Z,25.40
2018-07-09T12:35:53.878Z,25.30
2018-07-09T12:38:25.260Z,25.30
2018-07-09T12:40:56.386Z,25.30
2018-07-09T12:43:27.428Z,25.10
2018-07-09T12:45:58.984Z,25.10
2018-07-09T12:48:30.098Z,25.20
2018-07-09T12:51:01.464Z,25.40
2018-07-09T12:53:32.813Z,25.40
2018-07-09T12:56:04.633Z,25.30
2018-07-09T12:58:36.588Z,25.10
2018-07-09T13:01:08.642Z,24.90
2018-07-09T13:03:40.075Z,24.70
2018-07-09T13:06:11.726Z,24.70
2018-07-09T13:08:43.384Z,24.60
2018-07-09T13:11:14.452Z,24.70
2018-07-09T13:13:46.552Z,24.70
2018-07-09T13:16:17.773Z,24.70
2018-07-09T13:18:48.768Z,24.70
2018-07-09T13:21:20.152Z,24.40
2018-07-09T19:15:22.901Z,17.40
2018-07-09T19:19:12.896Z,17.40
2018-07-09T19:27:54.752Z,17.10
2018-07-09T19:33:57.981Z,16.80
2018-07-09T19:36:27.223Z,16.70
2018-07-09T19:45:13.491Z,16.40
2018-07-09T19:47:42.376Z,16.50
2018-07-09T19:53:17.707Z,16.50
2018-07-09T20:02:28.771Z,16.60
2018-07-09T20:05:28.164Z,16.60
2018-07-09T20:07:58.761Z,16.60
2018-07-09T20:14:03.114Z,16.50
2018-07-09T20:16:36.839Z,16.50
2018-07-09T20:22:28.819Z,16.60
2018-07-09T20:24:57.405Z,16.60
2018-07-09T20:38:09.393Z,16.70
2018-07-09T20:40:38.778Z,16.60
2018-07-09T20:43:07.292Z,16.60
2018-07-09T20:45:36.896Z,16.60
2018-07-09T20:48:05.502Z,16.50
2018-07-09T20:50:42.562Z,16.40
2018-07-09T20:53:27.860Z,16.20
2018-07-09T20:55:56.592Z,16.10
2018-07-09T20:58:29.296Z,16.10
2018-07-09T21:04:13.447Z,16.00
2018-07-09T21:06:42.761Z,15.90
2018-07-09T21:09:37.882Z,15.90
2018-07-09T21:12:07.625Z,15.80
2018-07-09T21:14:36.237Z,15.70
2018-07-09T21:17:27.828Z,15.60
2018-07-09T21:19:57.087Z,15.50
2018-07-09T21:22:26.395Z,15.50
2018-07-09T21:28:00.650Z,15.40
2018-07-09T21:30:30.101Z,15.40
2018-07-09T21:36:05.241Z,15.30
2018-07-09T21:38:34.050Z,15.30
2018-07-09T21:41:13.507Z,15.20
2018-07-09T21:46:57.661Z,15.20
2018-07-09T21:59:06.052Z,15.20
2018-07-09T22:01:34.736Z,15.20
2018-07-09T22:07:10.017Z,15.40
2018-07-09T22:09:48.881Z,15.40
2018-07-09T22:12:17.348Z,15.50
2018-07-09T22:14:47.390Z,15.50
2018-07-09T22:23:59.042Z,15.50
2018-07-09T22:26:56.677Z,15.50
2018-07-09T22:29:25.160Z,15.40
2018-07-09T22:37:43.392Z,15.40
2018-07-09T22:43:40.305Z,15.40
2018-07-09T22:46:11.078Z,15.40
2018-07-09T22:48:41.481Z,15.40
2018-07-09T22:51:17.661Z,15.40
2018-07-09T22:53:48.421Z,15.40
2018-07-09T22:56:29.887Z,15.40
2018-07-09T23:05:29.814Z,15.30
2018-07-09T23:08:00.773Z,15.20
2018-07-09T23:20:22.092Z,15.10
2018-07-09T23:22:50.535Z,15.20
2018-07-09T23:34:51.623Z,15.10
2018-07-09T23:37:20.034Z,15.10
2018-07-09T23:42:57.768Z,15.10
2018-07-09T23:54:59.960Z,14.80
